createdAt,value
2016-10-18T00:01:07.383Z,0
2016-10-18T00:02:19.828Z,0
2016-10-18T00:03:31.730Z,0
2016-10-18T00:04:43.654Z,0
2016-10-18T00:05:56.664Z,0
2016-10-18T00:07:09.646Z,0
2016-10-18T00:08:22.784Z,0
2016-10-18T00:09:35.251Z,0
2016-10-18T00:10:46.621Z,0
2016-10-18T00:11:59.059Z,0
2016-10-18T00:13:11.545Z,0
2016-10-18T00:14:22.894Z,0
2016-10-18T00:15:35.332Z,0
2016-10-18T00:16:48.967Z,0
2016-10-18T00:18:01.984Z,0
2016-10-18T00:19:14.375Z,0
2016-10-18T00:20:26.270Z,0
2016-10-18T00:21:39.791Z,0
2016-10-18T00:22:51.721Z,0
2016-10-18T00:24:04.181Z,0
2016-10-18T00:25:17.118Z,0
2016-10-18T00:26:29.000Z,0
2016-10-18T00:27:40.952Z,0
2016-10-18T00:28:53.382Z,0
2016-10-18T00:30:05.311Z,0
2016-10-18T00:31:17.867Z,0
2016-10-18T00:32:30.292Z,0
2016-10-18T00:33:42.195Z,0
2016-10-18T00:34:54.603Z,0
2016-10-18T00:36:06.581Z,0
2016-10-18T00:37:19.592Z,0
2016-10-18T00:38:32.174Z,0
2016-10-18T00:39:44.660Z,0
2016-10-18T00:40:57.548Z,0
2016-10-18T00:42:09.433Z,0
2016-10-18T00:43:20.865Z,0
2016-10-18T00:44:33.286Z,0
2016-10-18T00:45:45.201Z,0
2016-10-18T00:46:57.607Z,0
2016-10-18T00:48:09.532Z,0
2016-10-18T00:49:22.669Z,0
2016-10-18T00:50:35.168Z,0
2016-10-18T00:51:47.561Z,0
2016-10-18T00:52:59.981Z,0
2016-10-18T00:54:12.942Z,0
2016-10-18T00:55:24.991Z,0
2016-10-18T00:56:36.918Z,0
2016-10-18T00:57:48.805Z,0
2016-10-18T00:59:00.725Z,0
2016-10-18T01:00:12.206Z,0
2016-10-18T01:01:24.629Z,0
2016-10-18T01:02:36.764Z,0
2016-10-18T01:03:50.277Z,0
2016-10-18T01:05:02.717Z,0
2016-10-18T01:06:15.198Z,0
2016-10-18T01:07:28.184Z,0
2016-10-18T01:08:41.178Z,0
2016-10-18T01:09:54.334Z,0
2016-10-18T01:11:06.342Z,0
2016-10-18T01:12:18.205Z,0
2016-10-18T01:13:30.576Z,0
2016-10-18T01:14:42.985Z,0
2016-10-18T01:15:53.855Z,0
2016-10-18T01:17:05.903Z,0
2016-10-18T01:18:18.906Z,0
2016-10-18T01:19:31.905Z,0
2016-10-18T01:20:43.789Z,0
2016-10-18T01:21:56.273Z,0
2016-10-18T01:23:08.751Z,0
2016-10-18T01:24:21.228Z,0
2016-10-18T01:25:34.731Z,0
2016-10-18T01:26:46.614Z,0
2016-10-18T01:27:59.753Z,0
2016-10-18T01:29:12.179Z,0
2016-10-18T01:30:25.074Z,0
2016-10-18T01:31:38.574Z,0
2016-10-18T01:32:50.971Z,0
2016-10-18T01:34:02.878Z,0
2016-10-18T01:35:15.274Z,0
2016-10-18T01:36:28.231Z,0
2016-10-18T01:37:41.293Z,0
2016-10-18T01:38:53.862Z,0
2016-10-18T01:40:06.961Z,0
2016-10-18T01:41:19.461Z,0
2016-10-18T01:42:32.393Z,0
2016-10-18T01:43:44.894Z,0
2016-10-18T01:44:57.276Z,0
2016-10-18T01:46:09.734Z,0
2016-10-18T01:47:22.199Z,0
2016-10-18T01:48:34.696Z,0
2016-10-18T01:49:47.885Z,0
2016-10-18T01:50:59.292Z,0
2016-10-18T01:52:11.240Z,0
2016-10-18T01:53:24.191Z,0
2016-10-18T01:54:37.667Z,0
2016-10-18T01:55:50.741Z,0
2016-10-18T01:57:04.227Z,0
2016-10-18T01:58:16.734Z,0
2016-10-18T01:59:28.654Z,0
2016-10-18T02:00:41.186Z,0
2016-10-18T02:01:53.641Z,0
2016-10-18T02:03:06.144Z,0
2016-10-18T02:04:19.600Z,0
2016-10-18T02:05:32.482Z,0
2016-10-18T02:06:44.904Z,0
2016-10-18T02:07:58.423Z,0
2016-10-18T02:09:10.798Z,0
2016-10-18T02:10:22.692Z,0
2016-10-18T02:11:35.279Z,0
2016-10-18T02:12:47.228Z,0
2016-10-18T02:13:58.651Z,0
2016-10-18T02:15:11.596Z,0
2016-10-18T02:16:25.054Z,0
2016-10-18T02:17:37.042Z,0
2016-10-18T02:18:48.680Z,0
2016-10-18T02:20:01.629Z,0
2016-10-18T02:21:14.605Z,0
2016-10-18T02:22:27.159Z,0
2016-10-18T02:23:39.562Z,0
2016-10-18T02:24:52.533Z,0
2016-10-18T02:26:05.235Z,0
2016-10-18T02:27:18.159Z,0
2016-10-18T02:28:31.186Z,0
2016-10-18T02:29:42.811Z,0
2016-10-18T02:30:54.705Z,0
2016-10-18T02:32:05.548Z,0
2016-10-18T02:33:19.152Z,0
2016-10-18T02:34:30.492Z,0
2016-10-18T02:35:44.015Z,0
2016-10-18T02:36:57.052Z,0
2016-10-18T02:38:10.059Z,0
2016-10-18T02:39:22.988Z,0
2016-10-18T02:40:35.396Z,0
2016-10-18T02:41:47.882Z,0
2016-10-18T02:43:00.853Z,0
2016-10-18T02:44:14.437Z,0
2016-10-18T02:45:27.371Z,0
2016-10-18T02:46:39.784Z,0
2016-10-18T02:47:52.774Z,0
2016-10-18T02:49:05.169Z,0
2016-10-18T02:50:17.620Z,0
2016-10-18T02:51:29.497Z,0
2016-10-18T02:52:41.894Z,0
2016-10-18T02:53:54.354Z,0
2016-10-18T02:55:06.997Z,0
2016-10-18T02:56:19.492Z,0
2016-10-18T02:57:31.972Z,0
2016-10-18T02:58:45.575Z,0
2016-10-18T02:59:58.619Z,0
2016-10-18T03:01:10.029Z,0
2016-10-18T03:02:20.926Z,0
2016-10-18T03:03:33.813Z,0
2016-10-18T03:04:46.234Z,0
2016-10-18T03:05:58.811Z,0
2016-10-18T03:07:11.375Z,0
2016-10-18T03:08:22.778Z,0
2016-10-18T03:09:35.240Z,0
2016-10-18T03:10:47.708Z,0
2016-10-18T03:12:00.145Z,0
2016-10-18T03:13:13.170Z,0
2016-10-18T03:14:25.777Z,0
2016-10-18T03:15:37.705Z,0
2016-10-18T03:16:50.297Z,0
2016-10-18T03:18:02.753Z,0
2016-10-18T03:19:15.705Z,0
2016-10-18T03:20:27.581Z,0
2016-10-18T03:21:40.556Z,0
2016-10-18T03:22:53.491Z,0
2016-10-18T03:24:05.448Z,0
2016-10-18T03:25:18.422Z,0
2016-10-18T03:26:30.896Z,0
2016-10-18T03:27:41.909Z,0
2016-10-18T03:28:54.426Z,0
2016-10-18T03:30:06.313Z,0
2016-10-18T03:31:17.687Z,0
2016-10-18T03:32:30.680Z,0
2016-10-18T03:33:43.634Z,0
2016-10-18T03:34:56.619Z,0
2016-10-18T03:36:09.077Z,0
2016-10-18T03:37:21.557Z,0
2016-10-18T03:38:33.622Z,0
2016-10-18T03:39:45.995Z,0
2016-10-18T03:40:58.452Z,0
2016-10-18T03:42:11.392Z,0
2016-10-18T03:43:23.273Z,0
2016-10-18T03:44:36.443Z,0
2016-10-18T03:45:48.319Z,0
2016-10-18T03:46:59.751Z,0
2016-10-18T03:48:11.650Z,0
2016-10-18T03:49:24.780Z,0
2016-10-18T03:50:37.761Z,0
2016-10-18T03:51:50.202Z,0
2016-10-18T03:53:02.549Z,0
2016-10-18T03:54:15.554Z,0
2016-10-18T03:55:28.548Z,0
2016-10-18T03:56:40.930Z,0
2016-10-18T03:57:53.411Z,0
2016-10-18T03:59:05.835Z,0
2016-10-18T04:00:18.416Z,0
2016-10-18T04:01:31.375Z,0
2016-10-18T04:02:43.791Z,0
2016-10-18T04:03:57.263Z,0
2016-10-18T04:05:10.241Z,0
2016-10-18T04:06:23.720Z,0
2016-10-18T04:07:36.160Z,0
2016-10-18T04:08:48.623Z,0
2016-10-18T04:10:01.058Z,0
2016-10-18T04:11:14.681Z,0
2016-10-18T04:12:27.628Z,0
2016-10-18T04:13:40.546Z,0
2016-10-18T04:14:52.496Z,0
2016-10-18T04:16:04.009Z,0
2016-10-18T04:17:16.534Z,0
2016-10-18T04:18:28.976Z,0
2016-10-18T04:19:41.960Z,0
2016-10-18T04:20:53.848Z,0
2016-10-18T04:22:05.825Z,0
2016-10-18T04:23:17.780Z,0
2016-10-18T04:24:29.662Z,0
2016-10-18T04:25:42.138Z,0
2016-10-18T04:26:55.038Z,0
2016-10-18T04:28:07.956Z,0
2016-10-18T04:29:20.363Z,0
2016-10-18T04:30:32.298Z,0
2016-10-18T04:31:44.202Z,0
2016-10-18T04:32:57.262Z,0
2016-10-18T04:34:09.640Z,0
2016-10-18T04:35:22.573Z,0
2016-10-18T04:36:34.511Z,0
2016-10-18T04:37:45.937Z,0
2016-10-18T04:38:58.961Z,0
2016-10-18T04:40:11.406Z,0
2016-10-18T04:41:22.774Z,0
2016-10-18T04:42:35.777Z,0
2016-10-18T04:43:47.193Z,0
2016-10-18T04:44:59.126Z,0
2016-10-18T04:46:10.585Z,0
2016-10-18T04:47:22.552Z,0
2016-10-18T04:48:35.540Z,0
2016-10-18T04:49:48.513Z,0
2016-10-18T04:51:01.441Z,0
2016-10-18T04:52:13.811Z,0
2016-10-18T04:53:26.754Z,0
2016-10-18T04:54:39.835Z,0
2016-10-18T04:55:52.219Z,0
2016-10-18T04:57:04.602Z,0
2016-10-18T04:58:17.331Z,0
2016-10-18T04:59:29.201Z,0
2016-10-18T05:00:41.696Z,0
2016-10-18T05:01:55.143Z,0
2016-10-18T05:03:07.003Z,0
2016-10-18T05:04:19.402Z,0
2016-10-18T05:05:32.999Z,0
2016-10-18T05:06:45.424Z,0
2016-10-18T05:07:57.565Z,0
2016-10-18T05:09:09.516Z,0
2016-10-18T05:10:21.409Z,0
2016-10-18T05:11:33.853Z,0
2016-10-18T05:12:46.286Z,0
2016-10-18T05:13:59.246Z,0
2016-10-18T05:15:11.159Z,0
2016-10-18T05:16:24.416Z,0
2016-10-18T05:17:36.868Z,0
2016-10-18T05:18:50.320Z,0
2016-10-18T05:20:03.274Z,0
2016-10-18T05:21:16.870Z,0
2016-10-18T05:22:29.466Z,0
2016-10-18T05:23:42.407Z,0
2016-10-18T05:24:53.766Z,0
2016-10-18T05:26:05.132Z,0
2016-10-18T05:27:18.246Z,0
2016-10-18T05:28:30.716Z,0
2016-10-18T05:29:42.633Z,0
2016-10-18T05:30:55.580Z,0
2016-10-18T05:32:08.640Z,0
2016-10-18T05:33:21.629Z,0
2016-10-18T05:34:34.107Z,0
2016-10-18T05:35:47.204Z,0
2016-10-18T05:37:00.831Z,0
2016-10-18T05:38:13.909Z,0
2016-10-18T05:39:25.940Z,0
2016-10-18T05:40:38.374Z,0
2016-10-18T05:41:51.267Z,0
2016-10-18T05:43:03.298Z,0
2016-10-18T05:44:15.413Z,0
2016-10-18T05:45:27.913Z,0
2016-10-18T05:46:40.846Z,0
2016-10-18T05:47:53.893Z,0
2016-10-18T05:49:05.910Z,0
2016-10-18T05:50:18.892Z,0
2016-10-18T05:51:30.410Z,0
2016-10-18T05:52:41.957Z,0
2016-10-18T05:53:54.352Z,0
2016-10-18T05:55:06.834Z,0
2016-10-18T05:56:19.258Z,0
2016-10-18T05:57:31.696Z,0
2016-10-18T05:58:44.088Z,0
2016-10-18T05:59:56.063Z,0
2016-10-18T06:01:07.439Z,0
2016-10-18T06:02:19.373Z,0
2016-10-18T06:03:30.694Z,0
2016-10-18T06:04:43.190Z,0
2016-10-18T06:05:55.204Z,0
2016-10-18T06:07:07.593Z,0
2016-10-18T06:08:19.450Z,0
2016-10-18T06:09:31.393Z,0
2016-10-18T06:10:44.322Z,0
2016-10-18T06:11:56.223Z,0
2016-10-18T06:13:08.615Z,0
2016-10-18T06:14:20.531Z,0
2016-10-18T06:15:32.416Z,0
2016-10-18T06:16:44.963Z,0
2016-10-18T06:17:57.351Z,0
2016-10-18T06:19:09.881Z,0
2016-10-18T06:20:22.854Z,0
2016-10-18T06:21:35.854Z,0
2016-10-18T06:22:48.286Z,0
2016-10-18T06:24:00.817Z,0
2016-10-18T06:25:12.735Z,0
2016-10-18T06:26:25.674Z,0
2016-10-18T06:27:39.212Z,0
2016-10-18T06:28:51.656Z,0
2016-10-18T06:30:04.110Z,0
2016-10-18T06:31:16.542Z,0
2016-10-18T06:32:29.476Z,0
2016-10-18T06:33:41.922Z,0
2016-10-18T06:34:55.454Z,0
2016-10-18T06:36:07.938Z,0
2016-10-18T06:37:20.339Z,0
2016-10-18T06:38:32.904Z,0
2016-10-18T06:39:45.876Z,0
2016-10-18T06:40:57.859Z,0
2016-10-18T06:42:10.848Z,0
2016-10-18T06:43:24.310Z,0
2016-10-18T06:44:36.784Z,0
2016-10-18T06:45:50.268Z,0
2016-10-18T06:47:03.252Z,0
2016-10-18T06:48:15.723Z,0
2016-10-18T06:49:27.715Z,0
2016-10-18T06:50:40.616Z,0
2016-10-18T06:51:53.597Z,0
2016-10-18T06:53:04.997Z,0
2016-10-18T06:54:17.383Z,0
2016-10-18T06:55:30.496Z,0
2016-10-18T06:56:42.916Z,0
2016-10-18T06:57:56.416Z,0
2016-10-18T06:59:08.975Z,0
2016-10-18T07:00:21.608Z,0
2016-10-18T07:01:34.021Z,0
2016-10-18T07:02:45.968Z,0
2016-10-18T07:03:59.489Z,0
2016-10-18T07:05:11.876Z,0
2016-10-18T07:06:23.869Z,0
2016-10-18T07:07:35.774Z,0
2016-10-18T07:08:48.239Z,0
2016-10-18T07:10:00.181Z,0
2016-10-18T07:11:11.652Z,0
2016-10-18T07:12:24.526Z,0
2016-10-18T07:13:36.447Z,0
2016-10-18T07:14:49.362Z,0
2016-10-18T07:16:01.822Z,0
2016-10-18T07:17:14.372Z,0
2016-10-18T07:18:26.905Z,0
2016-10-18T07:19:39.885Z,0
2016-10-18T07:20:51.840Z,0
2016-10-18T07:22:04.448Z,0
2016-10-18T07:23:15.851Z,0
2016-10-18T07:24:27.217Z,0
2016-10-18T07:25:39.689Z,0
2016-10-18T07:26:51.631Z,0
2016-10-18T07:28:04.235Z,0
2016-10-18T07:29:16.649Z,0
2016-10-18T07:30:29.132Z,0
2016-10-18T07:31:42.670Z,0
2016-10-18T07:32:55.080Z,0
2016-10-18T07:34:07.668Z,0
2016-10-18T07:35:19.033Z,0
2016-10-18T07:36:32.049Z,0
2016-10-18T07:37:43.389Z,0
2016-10-18T07:38:55.961Z,0
2016-10-18T07:40:07.858Z,0
2016-10-18T07:41:19.739Z,0
2016-10-18T07:42:30.650Z,0
2016-10-18T07:43:42.049Z,0
2016-10-18T07:44:55.629Z,0
2016-10-18T07:46:09.067Z,0
2016-10-18T07:47:20.428Z,0
2016-10-18T07:48:32.861Z,0
2016-10-18T07:49:45.809Z,0
2016-10-18T07:50:58.729Z,0
2016-10-18T07:52:10.635Z,0
2016-10-18T07:53:23.039Z,0
2016-10-18T07:54:35.431Z,0
2016-10-18T07:55:47.473Z,0
2016-10-18T07:56:59.908Z,0
2016-10-18T07:58:12.347Z,0
2016-10-18T07:59:23.768Z,0
2016-10-18T08:00:35.150Z,0
2016-10-18T08:01:48.207Z,0
2016-10-18T08:03:01.208Z,0
2016-10-18T08:04:13.162Z,0
2016-10-18T08:05:26.120Z,0
2016-10-18T08:06:37.479Z,0
2016-10-18T08:07:49.352Z,0
2016-10-18T08:09:02.323Z,4
2016-10-18T08:10:14.752Z,0
2016-10-18T08:11:28.190Z,4
2016-10-18T08:12:40.883Z,4
2016-10-18T08:13:53.267Z,4
2016-10-18T08:15:05.683Z,8
2016-10-18T08:16:18.676Z,12
2016-10-18T08:17:31.601Z,12
2016-10-18T08:18:44.696Z,16
2016-10-18T08:19:58.193Z,20
2016-10-18T08:21:10.609Z,32
2016-10-18T08:22:23.052Z,36
2016-10-18T08:23:35.685Z,44
2016-10-18T08:24:49.224Z,64
2016-10-18T08:26:02.171Z,80
2016-10-18T08:27:14.634Z,108
2016-10-18T08:28:27.715Z,136
2016-10-18T08:29:41.226Z,140
2016-10-18T08:30:53.191Z,152
2016-10-18T08:32:06.144Z,168
2016-10-18T08:33:19.086Z,188
2016-10-18T08:34:32.119Z,212
2016-10-18T08:35:45.626Z,244
2016-10-18T08:36:58.004Z,284
2016-10-18T08:38:10.924Z,332
2016-10-18T08:39:22.847Z,392
2016-10-18T08:40:34.191Z,456
2016-10-18T08:41:46.147Z,516
2016-10-18T08:42:58.558Z,588
2016-10-18T08:44:10.485Z,664
2016-10-18T08:45:23.009Z,736
2016-10-18T08:46:35.423Z,816
2016-10-18T08:47:47.319Z,896
2016-10-18T08:48:59.244Z,980
2016-10-18T08:50:11.719Z,1072
2016-10-18T08:51:23.731Z,1172
2016-10-18T08:52:35.199Z,1268
2016-10-18T08:53:47.709Z,1360
2016-10-18T08:55:00.688Z,1456
2016-10-18T08:56:13.961Z,1556
2016-10-18T08:57:27.397Z,1652
2016-10-18T08:58:39.595Z,1748
2016-10-18T08:59:51.017Z,1840
2016-10-18T09:01:02.923Z,1932
2016-10-18T09:02:15.385Z,2020
2016-10-18T09:03:28.091Z,2104
2016-10-18T09:04:41.194Z,2200
2016-10-18T09:05:54.495Z,2296
2016-10-18T09:07:07.627Z,2400
2016-10-18T09:08:20.586Z,2508
2016-10-18T09:09:32.516Z,2608
2016-10-18T09:10:44.992Z,2712
2016-10-18T09:11:58.555Z,2820
2016-10-18T09:13:10.969Z,2932
2016-10-18T09:14:23.916Z,3048
2016-10-18T09:15:37.181Z,3148
2016-10-18T09:16:49.269Z,3244
2016-10-18T09:18:02.713Z,3364
2016-10-18T09:19:14.581Z,3488
2016-10-18T09:20:28.048Z,3620
2016-10-18T09:21:40.489Z,3756
2016-10-18T09:22:52.866Z,3900
2016-10-18T09:24:05.811Z,4052
2016-10-18T09:25:18.244Z,4204
2016-10-18T09:26:31.230Z,4364
2016-10-18T09:27:43.637Z,4524
2016-10-18T09:28:55.730Z,4680
2016-10-18T09:30:08.186Z,4836
2016-10-18T09:31:21.221Z,4992
2016-10-18T09:32:33.728Z,5148
2016-10-18T09:33:46.215Z,5312
2016-10-18T09:34:58.289Z,5464
2016-10-18T09:36:09.219Z,5620
2016-10-18T09:37:21.137Z,5776
2016-10-18T09:38:34.234Z,5920
2016-10-18T09:39:47.927Z,6040
2016-10-18T09:41:00.904Z,6152
2016-10-18T09:42:13.389Z,6252
2016-10-18T09:43:24.774Z,6352
2016-10-18T09:44:37.215Z,6444
2016-10-18T09:45:49.292Z,6536
2016-10-18T09:47:01.808Z,6620
2016-10-18T09:48:14.845Z,6704
2016-10-18T09:49:27.797Z,6784
2016-10-18T09:50:39.899Z,6860
2016-10-18T09:51:50.871Z,6928
2016-10-18T09:53:03.876Z,6992
2016-10-18T09:54:17.070Z,7052
2016-10-18T09:55:29.993Z,7112
2016-10-18T09:56:42.952Z,7168
2016-10-18T09:57:55.387Z,7228
2016-10-18T09:59:07.470Z,7296
2016-10-18T10:00:18.955Z,7360
2016-10-18T10:01:30.779Z,7416
2016-10-18T10:02:41.925Z,7468
2016-10-18T10:03:54.860Z,7532
2016-10-18T10:05:07.583Z,7600
2016-10-18T10:06:20.612Z,7668
2016-10-18T10:07:33.775Z,7744
2016-10-18T10:08:45.765Z,7812
2016-10-18T10:09:58.777Z,7868
2016-10-18T10:11:10.716Z,7924
2016-10-18T10:12:24.283Z,7732
2016-10-18T10:13:37.832Z,7776
2016-10-18T10:14:50.814Z,7820
2016-10-18T10:16:03.288Z,7868
2016-10-18T10:17:15.839Z,7916
2016-10-18T10:18:29.363Z,7964
2016-10-18T10:19:43.189Z,8016
2016-10-18T10:20:55.720Z,8064
2016-10-18T10:22:09.143Z,8120
2016-10-18T10:23:23.023Z,8172
2016-10-18T10:24:35.999Z,8228
2016-10-18T10:25:49.090Z,8284
2016-10-18T10:27:02.246Z,8360
2016-10-18T10:28:15.473Z,8444
2016-10-18T10:29:29.016Z,8528
2016-10-18T10:30:42.576Z,8624
2016-10-18T10:31:55.659Z,8736
2016-10-18T10:33:08.121Z,8848
2016-10-18T10:34:21.312Z,8976
2016-10-18T10:35:33.783Z,9088
2016-10-18T10:36:46.281Z,9172
2016-10-18T10:37:59.736Z,9240
2016-10-18T10:39:12.774Z,9296
2016-10-18T10:40:26.356Z,9348
2016-10-18T10:41:39.836Z,9424
2016-10-18T10:42:52.283Z,9528
2016-10-18T10:44:05.251Z,9640
2016-10-18T10:45:17.913Z,9704
2016-10-18T10:46:31.331Z,9680
2016-10-18T10:47:44.860Z,9628
2016-10-18T10:48:57.337Z,9628
2016-10-18T10:50:09.812Z,9580
2016-10-18T10:51:22.820Z,9568
2016-10-18T10:52:36.330Z,9560
2016-10-18T10:53:49.702Z,9412
2016-10-18T10:55:02.640Z,9216
2016-10-18T10:56:16.572Z,9012
2016-10-18T10:57:30.092Z,8792
2016-10-18T10:58:42.569Z,8612
2016-10-18T10:59:55.065Z,8516
2016-10-18T11:01:07.750Z,8492
2016-10-18T11:02:21.231Z,8680
2016-10-18T11:03:33.744Z,9148
2016-10-18T11:04:47.186Z,9308
2016-10-18T11:06:00.754Z,9284
2016-10-18T11:07:12.927Z,9420
2016-10-18T11:08:25.897Z,9528
2016-10-18T11:09:38.938Z,9956
2016-10-18T11:10:51.532Z,9996
2016-10-18T11:12:03.492Z,10032
2016-10-18T11:13:14.344Z,10056
2016-10-18T11:14:26.756Z,10068
2016-10-18T11:15:39.747Z,10064
2016-10-18T11:16:53.386Z,10052
2016-10-18T11:18:07.073Z,10060
2016-10-18T11:19:20.024Z,10136
2016-10-18T11:20:32.472Z,10176
2016-10-18T11:21:45.929Z,10192
2016-10-18T11:22:59.009Z,10204
2016-10-18T11:24:11.673Z,10220
2016-10-18T11:25:24.729Z,10268
2016-10-18T11:26:38.339Z,10412
2016-10-18T11:27:50.790Z,10420
2016-10-18T11:29:04.465Z,10520
2016-10-18T11:30:16.899Z,10648
2016-10-18T11:31:29.855Z,10700
2016-10-18T11:32:42.290Z,10768
2016-10-18T11:33:55.276Z,10860
2016-10-18T11:35:07.211Z,10952
2016-10-18T11:36:19.641Z,11004
2016-10-18T11:37:32.680Z,11172
2016-10-18T11:38:46.153Z,11344
2016-10-18T11:39:59.768Z,11472
2016-10-18T11:41:12.202Z,11640
2016-10-18T11:42:25.760Z,11800
2016-10-18T11:43:38.646Z,12008
2016-10-18T11:44:51.128Z,12144
2016-10-18T11:46:04.616Z,12292
2016-10-18T11:47:17.005Z,12412
2016-10-18T11:48:30.053Z,12548
2016-10-18T11:49:43.114Z,12724
2016-10-18T11:50:56.219Z,12912
2016-10-18T11:52:09.165Z,13048
2016-10-18T11:53:21.618Z,13256
2016-10-18T11:54:34.562Z,13252
2016-10-18T11:55:47.464Z,13740
2016-10-18T11:57:00.972Z,14040
2016-10-18T11:58:14.313Z,14208
2016-10-18T11:59:26.775Z,14432
2016-10-18T12:00:39.680Z,14688
2016-10-18T12:01:53.411Z,14900
2016-10-18T12:03:05.893Z,14776
2016-10-18T12:04:18.878Z,14988
2016-10-18T12:05:31.850Z,14964
2016-10-18T12:06:44.918Z,15028
2016-10-18T12:07:57.891Z,15076
2016-10-18T12:09:11.584Z,15252
2016-10-18T12:10:24.139Z,15008
2016-10-18T12:11:37.235Z,14116
2016-10-18T12:12:51.044Z,13912
2016-10-18T12:14:03.603Z,12256
2016-10-18T12:15:17.143Z,10928
2016-10-18T12:16:29.633Z,10292
2016-10-18T12:17:43.210Z,10016
2016-10-18T12:18:55.444Z,9804
2016-10-18T12:20:08.506Z,9656
2016-10-18T12:21:20.405Z,9544
2016-10-18T12:22:33.797Z,9528
2016-10-18T12:23:48.013Z,9536
2016-10-18T12:25:01.145Z,9496
2016-10-18T12:26:15.019Z,9500
2016-10-18T12:27:27.995Z,9544
2016-10-18T12:28:41.455Z,9636
2016-10-18T12:29:54.999Z,9812
2016-10-18T12:31:08.542Z,10288
2016-10-18T12:32:22.267Z,10720
2016-10-18T12:33:35.199Z,11064
2016-10-18T12:34:48.222Z,11104
2016-10-18T12:36:01.233Z,11780
2016-10-18T12:37:45.549Z,13280
2016-10-18T12:38:58.051Z,14192
2016-10-18T12:40:09.792Z,15136
2016-10-18T12:41:22.253Z,15832
2016-10-18T12:42:35.491Z,15920
2016-10-18T12:43:49.043Z,15584
2016-10-18T12:45:02.022Z,16112
2016-10-18T12:46:15.708Z,17504
2016-10-18T12:47:28.155Z,16552
2016-10-18T12:48:41.686Z,17408
2016-10-18T12:49:54.944Z,17696
2016-10-18T12:51:07.989Z,17568
2016-10-18T12:52:20.998Z,17920
2016-10-18T12:53:33.950Z,18688
2016-10-18T12:54:46.449Z,18976
2016-10-18T12:55:59.497Z,19392
2016-10-18T12:57:14.536Z,20192
2016-10-18T12:58:27.577Z,20480
2016-10-18T12:59:40.550Z,20608
2016-10-18T13:00:53.095Z,20640
2016-10-18T13:02:06.107Z,20672
2016-10-18T13:03:19.046Z,20576
2016-10-18T13:04:32.535Z,20288
2016-10-18T13:05:46.001Z,20512
2016-10-18T13:06:58.927Z,20192
2016-10-18T13:08:12.222Z,20544
2016-10-18T13:09:25.231Z,20576
2016-10-18T13:10:37.807Z,21152
2016-10-18T13:11:50.854Z,21568
2016-10-18T13:13:04.391Z,21856
2016-10-18T13:14:17.353Z,21984
2016-10-18T13:15:30.376Z,22496
2016-10-18T13:16:42.978Z,22432
2016-10-18T13:17:55.945Z,22656
2016-10-18T13:19:09.545Z,22912
2016-10-18T13:20:23.066Z,23200
2016-10-18T13:21:36.532Z,23424
2016-10-18T13:22:50.203Z,23744
2016-10-18T13:24:03.753Z,23712
2016-10-18T13:25:17.202Z,23776
2016-10-18T13:26:30.698Z,23648
2016-10-18T13:27:43.710Z,24032
2016-10-18T13:28:56.689Z,24192
2016-10-18T13:30:09.034Z,24032
2016-10-18T13:31:20.961Z,24160
2016-10-18T13:32:32.935Z,24224
2016-10-18T13:33:46.060Z,24352
2016-10-18T13:34:58.971Z,24448
2016-10-18T13:36:11.440Z,24512
2016-10-18T13:37:24.465Z,24608
2016-10-18T13:38:37.472Z,24768
2016-10-18T13:39:51.182Z,25152
2016-10-18T13:41:04.187Z,25600
2016-10-18T13:42:18.042Z,25632
2016-10-18T13:43:30.448Z,25696
2016-10-18T13:44:44.125Z,25344
2016-10-18T13:45:56.725Z,25280
2016-10-18T13:47:10.524Z,24768
2016-10-18T13:48:23.537Z,25760
2016-10-18T13:49:37.051Z,26400
2016-10-18T13:50:50.138Z,26656
2016-10-18T13:52:02.085Z,27200
2016-10-18T13:53:15.549Z,27200
2016-10-18T13:54:29.114Z,27712
2016-10-18T13:55:42.294Z,27136
2016-10-18T13:56:54.205Z,23904
2016-10-18T13:58:06.161Z,23328
2016-10-18T13:59:19.145Z,23552
2016-10-18T14:00:31.633Z,24864
2016-10-18T14:01:43.348Z,27104
2016-10-18T14:02:56.930Z,27808
2016-10-18T14:04:10.425Z,28896
2016-10-18T14:05:23.432Z,28992
2016-10-18T14:06:35.650Z,28512
2016-10-18T14:07:47.050Z,27296
2016-10-18T14:08:59.481Z,27008
2016-10-18T14:10:12.966Z,26976
2016-10-18T14:11:26.085Z,27104
2016-10-18T14:12:39.230Z,27232
2016-10-18T14:13:52.207Z,27584
2016-10-18T14:15:05.138Z,27904
2016-10-18T14:16:16.529Z,27456
2016-10-18T14:17:29.617Z,28576
2016-10-18T14:18:42.130Z,29344
2016-10-18T14:19:55.116Z,30080
2016-10-18T14:21:08.861Z,31008
2016-10-18T14:22:21.328Z,31776
2016-10-18T14:23:34.322Z,30816
2016-10-18T14:24:46.198Z,30432
2016-10-18T14:25:59.536Z,31168
2016-10-18T14:27:13.163Z,31136
2016-10-18T14:28:26.337Z,31520
2016-10-18T14:29:37.779Z,31840
2016-10-18T14:30:50.266Z,32032
2016-10-18T14:32:02.258Z,32064
2016-10-18T14:33:14.709Z,31904
2016-10-18T14:34:27.140Z,31744
2016-10-18T14:35:40.113Z,31776
2016-10-18T14:36:53.109Z,31744
2016-10-18T14:38:05.563Z,31744
2016-10-18T14:39:18.675Z,31552
2016-10-18T14:40:31.675Z,31520
2016-10-18T14:41:45.170Z,31616
2016-10-18T14:42:57.073Z,31520
2016-10-18T14:44:10.030Z,31712
2016-10-18T14:45:23.198Z,32032
2016-10-18T14:46:35.622Z,32096
2016-10-18T14:47:48.104Z,32480
2016-10-18T14:49:00.624Z,32800
2016-10-18T14:50:13.797Z,34112
2016-10-18T14:51:26.749Z,38432
2016-10-18T14:52:38.665Z,36992
2016-10-18T14:53:52.124Z,35648
2016-10-18T14:55:05.157Z,35328
2016-10-18T14:56:18.214Z,36064
2016-10-18T14:57:31.420Z,36576
2016-10-18T14:58:43.893Z,35616
2016-10-18T15:00:28.034Z,36352
2016-10-18T15:01:41.007Z,36256
2016-10-18T15:02:54.567Z,36064
2016-10-18T15:04:06.993Z,37056
2016-10-18T15:05:20.491Z,37184
2016-10-18T15:06:32.724Z,37312
2016-10-18T15:07:45.839Z,37056
2016-10-18T15:08:59.315Z,36896
2016-10-18T15:10:12.711Z,37024
2016-10-18T15:11:26.299Z,35168
2016-10-18T15:12:39.323Z,35392
2016-10-18T15:13:52.775Z,36544
2016-10-18T15:15:06.253Z,37536
2016-10-18T15:16:19.211Z,38432
2016-10-18T15:17:31.701Z,37824
2016-10-18T15:18:44.205Z,37664
2016-10-18T15:19:56.779Z,38592
2016-10-18T15:21:09.335Z,38720
2016-10-18T15:22:21.964Z,36352
2016-10-18T15:23:33.921Z,38144
2016-10-18T15:24:47.242Z,28352
2016-10-18T15:26:00.243Z,19456
2016-10-18T15:27:12.179Z,24416
2016-10-18T15:28:25.226Z,36032
2016-10-18T15:29:37.653Z,36128
2016-10-18T15:30:50.679Z,16552
2016-10-18T15:32:03.116Z,15832
2016-10-18T15:33:16.318Z,16132
2016-10-18T15:34:28.234Z,14384
2016-10-18T15:35:40.733Z,14244
2016-10-18T15:36:53.174Z,14052
2016-10-18T15:38:06.241Z,14396
2016-10-18T15:39:19.358Z,13588
2016-10-18T15:40:31.841Z,13268
2016-10-18T15:41:44.859Z,13308
2016-10-18T15:42:58.335Z,13240
2016-10-18T15:44:12.050Z,12552
2016-10-18T15:45:24.483Z,12416
2016-10-18T15:46:37.369Z,12608
2016-10-18T15:47:50.407Z,12976
2016-10-18T15:49:04.575Z,16492
2016-10-18T15:50:18.597Z,15320
2016-10-18T15:51:31.743Z,22336
2016-10-18T15:52:44.313Z,34464
2016-10-18T15:53:57.333Z,37664
2016-10-18T15:55:10.400Z,17984
2016-10-18T15:56:23.386Z,17824
2016-10-18T15:57:35.819Z,39072
2016-10-18T15:58:48.770Z,40864
2016-10-18T16:00:01.750Z,17344
2016-10-18T16:01:14.202Z,41824
2016-10-18T16:02:27.241Z,42272
2016-10-18T16:03:39.672Z,26272
2016-10-18T16:04:53.229Z,36320
2016-10-18T16:06:05.854Z,16124
2016-10-18T16:07:19.393Z,16420
2016-10-18T16:08:32.354Z,17856
2016-10-18T16:09:44.822Z,19648
2016-10-18T16:10:58.390Z,19808
2016-10-18T16:12:10.953Z,19488
2016-10-18T16:13:27.407Z,18880
2016-10-18T16:14:43.251Z,18528
2016-10-18T16:15:56.780Z,18880
2016-10-18T16:17:09.949Z,19872
2016-10-18T16:18:21.360Z,20384
2016-10-18T16:19:33.295Z,19424
2016-10-18T16:20:46.384Z,20128
2016-10-18T16:22:00.010Z,20416
2016-10-18T16:23:12.439Z,20064
2016-10-18T16:24:26.041Z,19968
2016-10-18T16:25:39.613Z,20480
2016-10-18T16:26:52.738Z,20672
2016-10-18T16:28:06.887Z,20736
2016-10-18T16:29:20.160Z,30368
2016-10-18T16:30:33.692Z,18176
2016-10-18T16:31:47.277Z,16896
2016-10-18T16:32:59.852Z,21344
2016-10-18T16:34:12.369Z,21280
2016-10-18T16:35:24.842Z,31392
2016-10-18T16:36:38.444Z,26304
2016-10-18T16:37:51.483Z,20256
2016-10-18T16:39:04.463Z,14260
2016-10-18T16:40:17.422Z,13708
2016-10-18T16:41:30.433Z,13852
2016-10-18T16:42:43.915Z,13968
2016-10-18T16:43:57.034Z,20096
2016-10-18T16:45:10.596Z,16480
2016-10-18T16:46:23.039Z,27808
2016-10-18T16:47:36.023Z,17504
2016-10-18T16:48:48.740Z,21920